• Join FlightAware (Why Join?)
  • Login
  • US Flag 
07:29AM EDT


 

Airport Tracker/Info


-or-


 

Live Flight TrackerFlight Track Log ✈ N7191N ✈ 03-May-2013 ✈ KCLE - KPTK

Flight Track Log - Related Links

Times and Time Zones

All times are in EDT time to prevent confusion due to time zone crossing. See the N7191N flight status page for this flight to view local times or setup timezone preferences in your user account.

Time Position Orientation Groundspeed Altitude Reporting Facility
EDT Latitude Longitude Course Direction KTS MPH feet Rate Location/Type
09:24AM 41.4000 -81.8869 288° West 158 182 1,500  Level Cleveland Center
09:24AM 41.4061 -81.9119 288° West 159 183 2,100 1,380 Climbing Cleveland Center
09:25AM 41.4286 -81.9539 306° West 173 199 3,300 1,200 Climbing Cleveland Center
09:26AM 41.4569 -82.0100 304° West 184 212 4,500 1,080 Climbing Cleveland Center
09:27AM 41.4917 -82.0661 310° West 204 235 5,500 960 Climbing Cleveland Center
09:28AM 41.5367 -82.1367 310° West 211 243 6,600 900 Climbing Cleveland Center
09:29AM 41.5733 -82.1958 310° West 219 252 7,500 660 Climbing Cleveland Center
09:30AM 41.6142 -82.2606 310° West 226 260 8,000 240 Climbing Cleveland Center
09:31AM 41.6569 -82.3342 308° West 250 288 8,000  Level Cleveland Center
09:32AM 41.6975 -82.3964 311° West 250 288 8,000 -60 Level Cleveland Center
09:34AM 41.7686 -82.5097 310° West 244 281 7,900 -60 Descending Cleveland Center
09:35AM 41.8133 -82.5781 311° West 243 280 7,900  Level Cleveland Center
09:36AM 41.8644 -82.6325 322° Northwest 246 283 7,900 -180 Level Cleveland Center
09:37AM 41.9286 -82.6681 338° Northwest 248 285 7,600 -660 Descending Cleveland Center
09:38AM 42.0233 -82.7242 336° Northwest 253 291 6,300 -780 Descending Cleveland Center
09:39AM 42.0731 -82.7456 342° North 247 284 6,000 -720 Descending Cleveland Center
09:40AM 42.1494 -82.7844 339° North 254 292 5,000 -480 Descending Cleveland Center
09:41AM 42.2114 -82.8175 338° Northwest 239 275 5,000 -120 Level Cleveland Center
09:42AM 42.2483 -82.8356 340° North 240 276 4,900 -60 Descending Cleveland Center
09:43AM 42.3353 -82.8781 340° North 234 269 4,900 -240 Level Cleveland Center
09:44AM 42.3658 -82.9017 330° Northwest 240 276 4,500 -660 Descending Cleveland Center
09:45AM 42.4194 -82.9400 332° Northwest 253 291 4,000 -480 Descending Cleveland Center
09:46AM 42.4789 -82.9789 334° Northwest 256 295 3,600 -540 Descending Cleveland Center
09:47AM 42.5083 -83.0758 292° West 237 273 2,900 -360 Descending Cleveland Center
09:48AM 42.5356 -83.1558 295° West 229 264 2,900  Level Cleveland Center
09:49AM 42.5611 -83.2331 294° West 223 257 3,000  Climbing Cleveland Center
09:50AM 42.5861 -83.3158 292° West 225 259 3,000  Level Cleveland Center
09:51AM 42.5986 -83.4039 281° West 221 254 3,000  Level Cleveland Center
09:52AM 42.5992 -83.4658 271° West 196 226 3,000 -420 Level Cleveland Center
09:53AM 42.6400 -83.4961 331° Northwest 164 189 2,300 -660 Descending Cleveland Center
09:54AM 42.6639 -83.4633 45° Northeast 102 117 1,600 -660 Descending Cleveland Center
09:56AM 42.6500 -83.4167 90° East  Level FlightAware Approximate
10:03AM 42.6656 -83.4205 90° East  Level Estimated